Latest Weather Observations for Esperance Airport

IDW60801

Issued at 11:52 pm WST Thursday 1 December 2022 (issued every 10 minutes, with the page automatically refreshed every 10 minutes)

About weather observations | Map of weather stations | Latest weather observations for WA | Other Formats
Station Details ID: 009542 Name: ESPERANCE AERO Lat: -33.68 Lon: 121.83 Height: 142.0 m
Data from the previous 72 hours. | See also: Recent months at Esperance Airport
Date/Time
WST
Temp
°C
App
Temp
°C
Dew
Point
°C
Rel
Hum
%
Delta-T
°C
Wind Press
QNH
hPa
Press
MSL
hPa
Rain since
9am
mm
Dir  Spd
km/h
Gust
km/h
Spd
kts
Gust
kts
01/11:30pm 17.1 14.9 16.0 93 0.7 SW 22 32 12 17 1008.0 1007.6 0.0
01/11:00pm 17.1 14.5 16.0 93 0.7 SW 24 33 13 18 1007.7 1007.3 0.0
01/10:30pm 17.0 12.6 15.7 92 0.8 SW 33 44 18 24 1007.5 1007.1 0.0
01/10:00pm 17.0 12.7 16.0 94 0.6 SW 33 41 18 22 1007.7 1007.3 0.0
01/09:30pm 17.1 13.4 16.1 94 0.6 SW 30 37 16 20 1008.0 1007.6 0.0
01/09:00pm 17.3 12.7 16.2 93 0.7 SW 35 46 19 25 1007.9 1007.5 0.0
01/08:30pm 17.9 14.4 16.6 92 0.8 SW 30 43 16 23 1007.3 1006.9 0.0
01/08:19pm 18.3 14.9 16.8 91 0.9 SW 30 41 16 22 1007.0 1006.6 0.0
01/08:00pm 19.0 15.6 16.8 87 1.3 WSW 30 41 16 22 1006.4 1006.0 0.0
01/07:30pm 19.6 16.3 17.0 85 1.6 WSW 30 39 16 21 1006.0 1005.6 0.0
01/07:10pm 23.1 20.6 16.2 65 4.2 WSW 24 43 13 23 1005.3 1004.8 0.0
01/07:00pm 24.4 24.0 16.1 60 5.1 SW 13 17 7 9 1004.8 1004.3 0.0
01/06:30pm 26.6 26.1 15.9 51 6.6 SW 13 15 7 8 1004.2 1003.7 0.0
01/06:00pm 28.6 27.8 15.2 44 8.3 SSE 13 17 7 9 1003.6 1003.1 0.0
01/05:30pm 30.0 27.6 13.7 37 9.8 SE 19 24 10 13 1003.2 1002.7 0.0
01/05:00pm 30.9 28.0 14.1 36 10.3 SSE 22 28 12 15 1002.9 1002.4 0.0
01/04:30pm 32.2 28.4 12.4 30 11.8 S 24 28 13 15 1002.9 1002.4 0.0
01/04:00pm 36.1 32.6 7.2 17 16.2 NNW 15 22 8 12 1002.7 1002.2 0.0
01/03:30pm 35.8 32.1 7.8 18 15.8 N 17 37 9 20 1003.0 1002.5 0.0
01/03:00pm 35.5 31.5 10.5 22 14.7 NNE 22 32 12 17 1003.2 1002.7 0.0
01/02:30pm 35.3 31.1 9.7 21 14.8 N 22 35 12 19 1003.6 1003.1 0.0
01/02:00pm 35.4 31.8 10.4 22 14.7 NNW 20 33 11 18 1004.0 1003.5 0.0
01/01:30pm 34.4 31.1 10.9 24 13.8 N 19 30 10 16 1004.4 1003.9 0.0
01/01:00pm 33.6 29.3 10.9 25 13.3 N 24 43 13 23 1004.9 1004.4 0.0
01/12:30pm 33.3 29.3 11.8 27 12.8 NNW 24 37 13 20 1005.5 1005.1 0.0
01/12:00pm 33.1 29.0 11.6 27 12.7 N 24 33 13 18 1005.8 1005.4 0.0
01/11:30am 31.4 27.4 11.7 29 11.6 NNE 24 39 13 21 1006.2 1005.8 0.0
01/11:00am 30.6 25.3 11.1 30 11.3 NNE 30 43 16 23 1006.7 1006.3 0.0
01/10:31am 30.1 24.1 10.1 29 11.4 NNE 32 52 17 28 1007.1 1006.7 0.0
01/10:30am 30.1 24.1 10.1 29 11.4 NNE 32 44 17 24 1007.1 1006.7 0.0
01/10:03am 29.3 23.2 9.9 30 11.0 NNE 32 50 17 27 1007.3 1006.9 0.0
01/10:00am 29.0 23.0 10.2 31 10.7 NNE 32 44 17 24 1007.4 1007.0 0.0
01/09:36am 27.8 22.2 8.6 30 10.6 NNE 28 48 15 26 1007.7 1007.3 0.0
01/09:30am 29.7 25.4 12.2 34 10.3 NNE 26 35 14 19 1007.7 1007.3 0.0
01/09:00am 27.4 21.8 10.2 34 9.7 NNE 30 46 16 25 1008.2 1007.8 0.0
01/08:33am 26.5 21.4 10.6 37 9.0 NNE 28 48 15 26 1008.5 1008.1 0.0
01/08:30am 27.1 22.4 10.8 36 9.3 NNE 26 37 14 20 1008.5 1008.1 0.0
01/08:00am 25.3 20.5 11.5 42 7.9 NNE 28 39 15 21 1008.9 1008.5 0.0
01/07:30am 24.0 19.2 11.7 46 7.0 NNE 28 43 15 23 1009.2 1008.8 0.0
01/07:00am 22.3 17.4 11.4 50 6.1 NNE 28 39 15 21 1009.3 1008.9 0.0
01/06:30am 20.0 15.4 11.2 57 4.9 N 26 41 14 22 1009.3 1008.9 0.0
01/06:00am 18.4 14.2 11.2 63 3.9 N 24 35 13 19 1009.3 1008.9 0.0
01/05:30am 17.0 13.2 11.3 69 3.1 N 22 33 12 18 1009.3 1008.9 0.0
01/05:00am 16.2 13.0 11.2 72 2.7 N 19 28 10 15 1009.4 1009.0 0.0
01/04:30am 16.2 13.4 11.2 72 2.7 N 17 24 9 13 1009.4 1009.0 0.0
01/04:00am 16.5 13.7 11.4 72 2.8 N 17 24 9 13 1009.2 1008.8 0.0
01/03:30am 16.6 14.0 12.0 74 2.5 NNE 17 24 9 13 1009.0 1008.7 0.0
01/03:00am 16.4 14.3 12.4 77 2.2 N 15 24 8 13 1009.3 1008.9 0.0
01/02:30am 16.9 14.5 12.8 77 2.3 N 17 28 9 15 1008.9 1008.6 0.0
01/02:00am 17.0 14.7 13.1 78 2.2 NNE 17 28 9 15 1008.8 1008.5 0.0
01/01:30am 16.5 14.2 13.0 80 2.0 NNE 17 28 9 15 1008.9 1008.6 0.0
01/01:00am 16.2 13.3 12.9 81 1.8 NNE 20 30 11 16 1009.2 1008.8 0.0
01/12:30am 16.0 13.2 12.6 80 1.9 NNE 19 32 10 17 1009.7 1009.3 0.0
01/12:00am 16.2 13.1 12.2 77 2.2 ENE 20 30 11 16 1009.8 1009.4 0.0
 
Date/Time
WST
Temp
°C
App
Temp
°C
Dew
Point
°C
Rel
Hum
%
Delta-T
°C
Wind Press
QNH
hPa
Press
MSL
hPa
Rain since
9am
mm
Dir  Spd
km/h
Gust
km/h
Spd
kts
Gust
kts
30/11:30pm 16.0 13.2 12.6 80 1.9 ENE 19 28 10 15 1009.8 1009.4 0.0
30/11:00pm 16.3 13.9 12.8 80 2.0 NE 17 28 9 15 1009.8 1009.4 0.0
30/10:30pm 16.2 13.9 12.9 81 1.8 ENE 17 24 9 13 1009.8 1009.4 0.0
30/10:00pm 15.9 14.0 13.0 83 1.6 E 15 20 8 11 1009.5 1009.1 0.0
30/09:30pm 16.3 14.0 13.0 81 1.8 E 17 26 9 14 1009.7 1009.3 0.0
30/09:00pm 17.0 14.6 12.7 76 2.4 E 17 24 9 13 1009.5 1009.1 0.0
30/08:30pm 17.5 15.0 12.4 72 2.8 ESE 17 20 9 11 1009.5 1009.1 0.0
30/08:00pm 19.3 16.2 12.1 63 4.0 NNE 20 30 11 16 1008.7 1008.4 0.0
30/07:30pm 19.9 15.6 12.2 61 4.3 N 26 35 14 19 1009.2 1008.8 0.0
30/07:00pm 20.8 17.5 11.7 56 5.1 NNE 20 30 11 16 1009.3 1008.9 0.0
30/06:30pm 21.3 17.4 12.2 56 5.2 NNE 24 33 13 18 1008.9 1008.6 0.0
30/06:00pm 21.0 16.2 12.9 60 4.6 N 30 37 16 20 1009.5 1009.1 0.0
30/05:30pm 20.3 15.5 12.8 62 4.3 NNE 30 44 16 24 1009.5 1009.1 0.0
30/05:00pm 20.2 16.9 12.9 63 4.2 N 22 30 12 16 1011.1 1010.7 0.0
30/04:30pm 19.9 16.5 12.4 62 4.2 NNE 22 33 12 18 1011.2 1010.8 0.0
30/04:00pm 19.5 14.1 12.3 63 4.0 N 32 39 17 21 1012.9 1012.6 0.0
30/03:30pm 19.9 15.8 12.7 63 4.1 N 26 35 14 19 1013.8 1013.5 0.0
30/03:00pm 20.5 16.9 11.7 57 4.9 NNW 22 30 12 16 1014.2 1013.9 0.0
30/02:30pm 21.2 18.6 12.1 56 5.1 NW 17 24 9 13 1014.4 1014.1 0.0
30/02:00pm 21.5 18.2 10.9 51 5.9 NNW 19 24 10 13 1014.2 1013.9 0.0
30/01:30pm 21.7 17.3 10.5 49 6.2 NNW 24 37 13 20 1014.2 1013.9 0.0
30/01:00pm 22.1 17.4 10.6 48 6.4 NNW 26 37 14 20 1014.1 1013.8 0.0
30/12:30pm 22.7 18.4 10.8 47 6.6 NNW 24 32 13 17 1013.9 1013.6 0.0
30/12:00pm 22.2 19.4 11.3 50 6.1 NNW 17 24 9 13 1014.6 1014.3 0.0
30/11:30am 20.9 17.9 12.1 57 5.0 N 19 30 10 16 1014.0 1013.7 0.0
30/11:00am 20.8 20.4 13.0 61 4.5 W 7 13 4 7 1015.3 1015.0 0.0
30/10:30am 21.6 19.6 11.6 53 5.6 NW 13 17 7 9 1016.0 1015.7 0.0
30/10:00am 22.0 21.3 12.0 53 5.7 NNE 7 9 4 5 1014.8 1014.5 0.0
30/09:30am 21.5 19.4 11.2 52 5.7 NNE 13 17 7 9 1015.1 1014.8 0.0
30/09:00am 20.9 18.7 10.7 52 5.6 NNE 13 19 7 10 1014.9 1014.6 0.0
30/08:30am 20.6 17.2 10.4 52 5.6 NNE 19 26 10 14 1015.2 1014.9 0.0
30/08:00am 20.7 16.0 10.5 52 5.6 N 26 33 14 18 1015.1 1014.8 0.0
30/07:30am 20.0 15.4 11.2 57 4.9 N 26 33 14 18 1014.8 1014.5 0.0
30/07:00am 18.8 14.2 10.9 60 4.3 N 26 37 14 20 1014.4 1014.1 0.0
30/06:30am 17.9 13.0 11.2 65 3.7 N 28 41 15 22 1014.1 1013.8 0.0
30/06:00am 16.8 11.5 11.3 70 3.0 N 30 39 16 21 1013.9 1013.6 0.0
30/05:30am 15.3 9.4 11.1 76 2.3 N 33 43 18 23 1013.5 1013.2 0.0
30/05:00am 14.6 8.9 11.0 79 1.9 N 32 43 17 23 1013.3 1013.0 0.0
30/04:30am 14.3 9.7 10.9 80 1.8 NNE 26 37 14 20 1012.7 1012.4 0.0
30/04:00am 14.3 9.7 11.1 81 1.7 NNE 26 39 14 21 1012.5 1012.2 0.0
30/03:30am 14.2 9.6 11.2 82 1.6 NNE 26 39 14 21 1012.6 1012.3 0.0
30/03:00am 14.0 9.5 11.3 84 1.4 NNE 26 41 14 22 1012.8 1012.5 0.0
30/02:30am 13.9 9.8 11.4 85 1.3 NNE 24 37 13 20 1013.1 1012.8 0.0
30/02:00am 13.8 10.1 11.5 86 1.2 NE 22 32 12 17 1013.5 1013.2 0.0
30/01:30am 14.0 9.9 11.5 85 1.3 NE 24 33 13 18 1013.8 1013.5 0.0
30/01:00am 13.9 10.2 11.4 85 1.3 NE 22 30 12 16 1014.1 1013.8 0.0
30/12:30am 13.9 10.5 11.2 84 1.4 NE 20 30 11 16 1014.4 1014.1 0.0
30/12:00am 14.1 10.9 11.3 83 1.5 NE 19 30 10 16 1014.8 1014.5 0.0
 
Date/Time
WST
Temp
°C
App
Temp
°C
Dew
Point
°C
Rel
Hum
%
Delta-T
°C
Wind Press
QNH
hPa
Press
MSL
hPa
Rain since
9am
mm
Dir  Spd
km/h
Gust
km/h
Spd
kts
Gust
kts
29/11:30pm 14.4 11.0 11.4 82 1.6 NE 20 30 11 16 1015.0 1014.7 0.0
29/11:00pm 14.5 11.2 11.5 82 1.6 NE 20 32 11 17 1015.4 1015.1 0.0
29/10:30pm 14.5 10.9 11.8 84 1.5 ENE 22 32 12 17 1015.5 1015.2 0.0
29/10:00pm 14.8 11.2 11.8 82 1.6 ENE 22 32 12 17 1015.9 1015.6 0.0
29/09:30pm 15.4 12.2 12.0 80 1.9 E 20 28 11 15 1016.0 1015.7 0.0
29/09:00pm 16.0 12.4 12.0 77 2.2 E 22 30 12 16 1016.2 1015.9 0.0
29/08:30pm 16.8 12.9 12.1 74 2.6 E 24 32 13 17 1016.5 1016.1 0.0
29/08:00pm 17.3 13.9 12.6 74 2.6 E 22 30 12 16 1016.1 1015.8 0.0
29/07:30pm 18.0 14.5 13.3 74 2.7 E 24 30 13 16 1015.9 1015.6 0.0
29/07:00pm 18.2 14.7 13.5 74 2.7 ESE 24 30 13 16 1015.6 1015.3 0.0
29/06:30pm 19.3 15.5 13.5 69 3.3 ESE 26 32 14 17 1015.2 1014.9 0.0
29/06:00pm 20.6 16.1 13.8 65 3.9 ESE 30 37 16 20 1014.9 1014.6 0.0
29/05:30pm 21.4 16.4 13.3 60 4.7 ESE 32 37 17 20 1014.8 1014.5 0.0
29/05:00pm 22.5 18.2 13.3 56 5.3 SE 28 35 15 19 1014.8 1014.5 0.0
29/04:30pm 22.6 17.8 12.8 54 5.6 SE 30 39 16 21 1014.8 1014.5 0.0
29/04:00pm 23.3 17.8 12.3 50 6.3 SE 33 43 18 23 1014.7 1014.4 0.0
29/03:30pm 23.4 19.0 13.0 52 6.0 SSE 28 37 15 20 1014.9 1014.6 0.0
29/03:00pm 24.6 20.0 13.5 50 6.5 SE 30 39 16 21 1015.0 1014.7 0.0
29/02:30pm 24.4 19.3 13.0 49 6.6 SE 32 41 17 22 1014.9 1014.6 0.0
29/02:00pm 24.7 20.4 13.3 49 6.7 SE 28 35 15 19 1015.2 1014.9 0.0
29/01:30pm 24.9 20.3 12.2 45 7.3 SSE 28 35 15 19 1015.5 1015.2 0.0
29/01:00pm 26.8 23.2 6.8 28 10.6 ENE 15 22 8 12 1016.0 1015.7 0.0
29/12:30pm 25.8 22.6 6.9 30 10.0 ENE 13 20 7 11 1016.7 1016.3 0.0
29/12:00pm 25.9 23.1 8.4 33 9.5 ESE 13 28 7 15 1017.0 1016.6 0.0
29/11:30am 24.7 22.8 9.0 37 8.5 NNE 9 17 5 9 1017.6 1017.2 0.0
29/11:00am 23.6 19.8 7.7 36 8.4 ENE 17 28 9 15 1017.9 1017.6 0.0
29/10:30am 23.1 19.8 8.0 38 8.0 NE 15 20 8 11 1018.2 1017.9 0.0
29/10:00am 22.4 19.1 9.6 44 6.9 NE 17 24 9 13 1018.5 1018.2 0.0
29/09:30am 21.0 18.0 9.3 47 6.3 NE 15 28 8 15 1018.6 1018.3 0.0
29/09:00am 20.6 18.0 10.7 53 5.4 NE 15 22 8 12 1018.9 1018.6 0.0
29/08:30am 19.3 16.5 10.0 55 5.0 NNE 15 22 8 12 1019.6 1019.3 0.0
29/08:00am 18.3 14.8 10.2 59 4.3 NNE 19 28 10 15 1019.9 1019.6 0.0
29/07:30am 16.4 11.8 9.6 64 3.6 NNE 24 32 13 17 1019.8 1019.5 0.0
29/07:00am 15.0 10.3 9.1 68 3.0 NNE 24 35 13 19 1019.7 1019.4 0.0
29/06:30am 13.5 9.2 9.2 75 2.2 NNE 22 35 12 19 1019.7 1019.4 0.0
29/06:00am 12.0 8.1 8.8 81 1.6 NNE 19 28 10 15 1019.8 1019.5 0.0
29/05:30am 10.9 6.9 8.1 83 1.4 NNE 19 26 10 14 1019.7 1019.4 0.0
29/05:00am 9.7 5.5 7.6 87 1.0 NNE 19 28 10 15 1019.6 1019.3 0.0
29/04:30am 9.6 5.9 7.9 89 0.8 NNE 17 24 9 13 1019.6 1019.3 0.0
29/04:00am 9.5 6.5 7.9 90 0.8 NE 13 20 7 11 1019.5 1019.2 0.0
29/03:30am 9.4 6.8 7.8 90 0.8 NE 11 17 6 9 1019.5 1019.2 0.0
29/03:00am 9.5 6.9 7.8 89 0.8 ENE 11 17 6 9 1019.5 1019.2 0.0
29/02:30am 10.3 7.4 8.2 87 1.0 NE 13 19 7 10 1019.8 1019.5 0.0
29/02:00am 10.4 7.2 8.3 87 1.0 NE 15 22 8 12 1019.9 1019.6 0.0
29/01:30am 10.0 7.5 8.3 89 0.8 ENE 11 17 6 9 1020.1 1019.8 0.0
29/01:00am 9.7 7.6 8.1 90 0.8 ENE 9 13 5 7 1020.5 1020.2 0.0
29/12:30am 9.9 7.0 8.0 88 0.9 ENE 13 17 7 9 1020.7 1020.4 0.0
29/12:00am 10.3 7.8 8.2 87 1.0 ENE 11 17 6 9 1020.9 1020.6 0.0

Other formats

Comma delimited format used in spreadsheet applications
http://www.bom.gov.au/fwo/IDW60801/IDW60801.95638.axf

JavaScript Object Notation format (JSON) in row-major order
http://www.bom.gov.au/fwo/IDW60801/IDW60801.95638.json

Data quality

Most of these data are generated automatically and are frequently updated. Quality checks on data are not normally performed. It is possible for incorrect values to appear. Refer to information at About Latest Weather Observations and please check the disclaimer before using these data.